createdAt,value
2023-03-13T00:02:13.492Z,13.84
2023-03-13T00:04:40.170Z,13.70
2023-03-13T00:07:07.294Z,13.67
2023-03-13T00:09:33.978Z,13.72
2023-03-13T00:12:00.601Z,13.86
2023-03-13T00:14:27.250Z,13.86
2023-03-13T00:16:53.930Z,13.92
2023-03-13T00:19:20.671Z,13.92
2023-03-13T00:21:47.329Z,13.90
2023-03-13T00:24:13.961Z,14.04
2023-03-13T00:26:40.588Z,14.14
2023-03-13T00:29:07.310Z,13.74
2023-03-13T00:31:34.763Z,13.83
2023-03-13T00:34:02.743Z,13.88
2023-03-13T00:36:33.260Z,13.58
2023-03-13T00:39:04.097Z,13.69
2023-03-13T00:41:32.517Z,13.74
2023-03-13T00:43:59.858Z,14.04
2023-03-13T00:46:29.232Z,13.82
2023-03-13T00:48:56.600Z,13.84
2023-03-13T00:51:26.644Z,13.48
2023-03-13T00:53:54.445Z,13.43
2023-03-13T00:56:22.414Z,13.54
2023-03-13T00:58:50.354Z,13.44
2023-03-13T01:01:21.984Z,13.50
2023-03-13T01:03:54.364Z,13.61
2023-03-13T01:06:26.455Z,13.65
2023-03-13T01:08:53.221Z,13.69
2023-03-13T01:11:23.544Z,13.42
2023-03-13T01:13:54.693Z,13.59
2023-03-13T01:16:22.620Z,13.39
2023-03-13T01:18:52.440Z,13.16
2023-03-13T01:21:20.821Z,13.38
2023-03-13T01:23:49.176Z,13.50
2023-03-13T01:26:16.281Z,13.36
2023-03-13T01:28:43.592Z,13.12
2023-03-13T01:31:21.166Z,13.32
2023-03-13T01:33:49.984Z,13.32
2023-03-13T01:36:17.373Z,13.31
2023-03-13T01:38:44.035Z,13.36
2023-03-13T01:41:12.676Z,13.24
2023-03-13T01:43:39.395Z,13.25
2023-03-13T01:46:16.407Z,12.97
2023-03-13T01:48:53.369Z,12.56
2023-03-13T01:51:28.666Z,13.01
2023-03-13T01:54:02.813Z,13.02
2023-03-13T01:56:53.876Z,12.85
2023-03-13T01:59:26.579Z,12.95
2023-03-13T02:01:58.938Z,13.04
2023-03-13T02:04:30.639Z,12.97
2023-03-13T02:07:02.764Z,12.76
2023-03-13T02:09:32.310Z,12.75
2023-03-13T02:12:05.979Z,12.51
2023-03-13T02:14:36.932Z,12.90
2023-03-13T02:17:06.138Z,12.97
2023-03-13T02:19:33.034Z,13.02
2023-03-13T02:22:06.764Z,12.77
2023-03-13T02:24:54.750Z,12.69
2023-03-13T02:27:21.728Z,13.05
2023-03-13T02:29:49.527Z,12.94
2023-03-13T02:32:16.668Z,13.01
2023-03-13T02:34:44.661Z,13.06
2023-03-13T02:37:13.794Z,13.07
2023-03-13T02:39:48.109Z,12.91
2023-03-13T02:42:18.747Z,13.18
2023-03-13T02:44:47.430Z,13.14
2023-03-13T02:47:24.814Z,13.01
2023-03-13T02:49:52.974Z,13.31
2023-03-13T02:52:33.120Z,13.26
2023-03-13T02:55:04.863Z,13.17
2023-03-13T02:57:35.289Z,13.27
2023-03-13T03:00:02.372Z,13.29
2023-03-13T03:02:30.049Z,13.44
2023-03-13T03:04:56.665Z,13.49
2023-03-13T03:07:23.451Z,13.58
2023-03-13T03:09:50.526Z,13.33
2023-03-13T03:12:19.345Z,13.52
2023-03-13T03:14:46.122Z,13.73
2023-03-13T03:17:13.381Z,13.83
2023-03-13T03:19:40.089Z,13.84
2023-03-13T03:22:09.260Z,13.55
2023-03-13T03:24:36.003Z,13.72
2023-03-13T03:27:04.421Z,13.80
2023-03-13T03:29:37.664Z,13.57
2023-03-13T03:32:04.939Z,13.55
2023-03-13T03:34:32.147Z,13.55
2023-03-13T03:36:59.417Z,13.72
2023-03-13T03:39:28.085Z,13.67
2023-03-13T03:41:55.287Z,13.91
2023-03-13T03:44:23.207Z,13.84
2023-03-13T03:46:53.677Z,14.15
2023-03-13T03:49:21.729Z,13.82
2023-03-13T03:51:49.495Z,13.93
2023-03-13T03:54:20.663Z,14.08
2023-03-13T03:56:47.467Z,14.13
2023-03-13T03:59:14.264Z,13.97
2023-03-13T04:01:48.090Z,13.86
2023-03-13T04:04:20.581Z,13.90
2023-03-13T04:06:51.721Z,14.05
2023-03-13T04:09:18.409Z,14.01
2023-03-13T04:11:45.076Z,14.02
2023-03-13T04:14:12.026Z,14.28
2023-03-13T04:16:39.067Z,14.12
2023-03-13T04:19:05.730Z,14.37
2023-03-13T04:21:32.932Z,14.20
2023-03-13T04:24:03.939Z,14.22
2023-03-13T04:26:32.068Z,14.16
2023-03-13T04:28:59.577Z,13.84
2023-03-13T04:31:40.053Z,13.85
2023-03-13T04:34:21.104Z,13.94
2023-03-13T04:36:58.645Z,14.34
2023-03-13T04:39:43.730Z,14.34
2023-03-13T04:42:33.289Z,13.97
2023-03-13T04:45:25.506Z,14.03
2023-03-13T04:48:27.567Z,14.08
2023-03-13T04:51:04.846Z,14.08
2023-03-13T04:53:51.760Z,13.92
2023-03-13T04:56:42.122Z,13.91
2023-03-13T04:59:28.302Z,13.89
2023-03-13T05:01:57.556Z,13.88
2023-03-13T05:04:52.184Z,13.93
2023-03-13T05:07:25.002Z,13.97
2023-03-13T05:09:51.639Z,14.08
2023-03-13T05:12:36.615Z,13.93
2023-03-13T05:15:10.694Z,14.07
2023-03-13T05:17:57.659Z,13.97
2023-03-13T05:20:29.838Z,14.14
2023-03-13T05:23:19.107Z,14.13
2023-03-13T05:26:01.570Z,13.98
2023-03-13T05:28:31.591Z,14.12
2023-03-13T05:31:20.968Z,14.04
2023-03-13T05:33:53.533Z,14.13
2023-03-13T05:36:25.871Z,14.41
2023-03-13T05:39:25.268Z,14.18
2023-03-13T05:42:05.461Z,14.14
2023-03-13T05:44:50.182Z,14.04
2023-03-13T05:47:36.362Z,14.24
2023-03-13T05:50:23.279Z,14.45
2023-03-13T05:53:18.026Z,14.56
2023-03-13T05:56:09.628Z,14.65
2023-03-13T05:59:01.902Z,14.30
2023-03-13T06:01:39.515Z,14.37
2023-03-13T06:04:15.837Z,14.52
2023-03-13T06:06:42.809Z,14.41
2023-03-13T06:09:11.639Z,14.40
2023-03-13T06:11:38.902Z,14.48
2023-03-13T06:14:06.044Z,14.79
2023-03-13T06:16:40.976Z,14.63
2023-03-13T06:19:20.561Z,14.58
2023-03-13T06:21:47.220Z,14.91
2023-03-13T06:24:13.869Z,14.68
2023-03-13T06:26:40.525Z,14.78
2023-03-13T06:29:07.332Z,15.05
2023-03-13T06:31:33.993Z,14.99
2023-03-13T06:34:00.701Z,15.24
2023-03-13T06:36:27.445Z,14.83
2023-03-13T06:38:54.117Z,15.09
2023-03-13T06:41:20.774Z,14.72
2023-03-13T06:43:47.445Z,15.12
2023-03-13T06:46:22.805Z,15.27
2023-03-13T06:48:49.971Z,14.92
2023-03-13T06:51:19.833Z,14.94
2023-03-13T06:53:47.352Z,15.05
2023-03-13T06:56:14.434Z,15.33
2023-03-13T06:58:41.364Z,15.05
2023-03-13T07:01:10.356Z,14.94
2023-03-13T07:03:37.807Z,15.13
2023-03-13T07:06:05.651Z,15.03
2023-03-13T07:08:32.895Z,14.84
2023-03-13T07:11:01.978Z,15.13
2023-03-13T07:13:29.231Z,14.91
2023-03-13T07:15:56.292Z,14.91
2023-03-13T07:18:23.256Z,14.96
2023-03-13T07:20:57.414Z,14.93
2023-03-13T07:23:25.813Z,15.03
2023-03-13T07:25:54.915Z,15.11
2023-03-13T07:28:22.184Z,15.45
2023-03-13T07:30:49.590Z,15.10
2023-03-13T07:33:16.894Z,14.95
2023-03-13T07:35:51.393Z,15.19
2023-03-13T07:38:19.389Z,15.34
2023-03-13T07:40:54.735Z,15.01
2023-03-13T07:43:22.539Z,15.13
2023-03-13T07:45:55.467Z,15.27
2023-03-13T07:48:24.010Z,15.17
2023-03-13T07:50:51.120Z,15.51
2023-03-13T07:53:21.317Z,15.49
2023-03-13T07:55:59.579Z,16.15
2023-03-13T07:58:29.255Z,16.31
2023-03-13T08:00:56.194Z,17.65
2023-03-13T08:03:23.597Z,17.32
2023-03-13T08:06:01.537Z,16.77
2023-03-13T08:08:28.876Z,16.31
2023-03-13T08:11:06.572Z,16.60
2023-03-13T08:13:34.481Z,16.50
2023-03-13T08:16:09.054Z,16.36
2023-03-13T08:18:37.614Z,15.81
2023-03-13T08:21:09.499Z,15.65
2023-03-13T08:23:37.022Z,15.99
2023-03-13T08:26:05.996Z,15.54
2023-03-13T08:28:32.745Z,15.93
2023-03-13T08:30:59.546Z,16.24
2023-03-13T08:33:26.253Z,15.96
2023-03-13T08:35:52.953Z,15.84
2023-03-13T08:38:19.653Z,15.79
2023-03-13T08:40:46.412Z,15.73
2023-03-13T08:43:13.160Z,16.10
2023-03-13T08:45:39.853Z,15.69
2023-03-13T08:48:06.619Z,16.08
2023-03-13T08:50:33.339Z,15.76
2023-03-13T08:53:00.004Z,16.02
2023-03-13T08:55:26.708Z,16.25
2023-03-13T08:57:53.281Z,16.18
2023-03-13T09:00:20.569Z,16.18
2023-03-13T09:02:47.272Z,16.63
2023-03-13T09:05:14.079Z,16.72
2023-03-13T09:07:46.506Z,16.65
2023-03-13T09:10:13.133Z,16.52
2023-03-13T09:12:41.119Z,16.29
2023-03-13T09:15:08.708Z,16.29
2023-03-13T09:17:35.368Z,16.34
2023-03-13T09:20:02.039Z,16.19
2023-03-13T09:22:29.200Z,16.31
2023-03-13T09:24:55.859Z,16.18
2023-03-13T09:27:22.496Z,16.28
2023-03-13T09:29:49.687Z,16.49
2023-03-13T09:32:17.036Z,16.55
2023-03-13T09:34:43.780Z,16.71
2023-03-13T09:37:10.475Z,16.91
2023-03-13T09:39:37.580Z,16.68
2023-03-13T09:42:18.157Z,16.56
2023-03-13T09:45:06.697Z,17.00
2023-03-13T09:47:38.482Z,16.99
2023-03-13T09:50:13.626Z,17.51
2023-03-13T09:52:41.473Z,17.18
2023-03-13T09:55:21.950Z,17.60
2023-03-13T09:58:21.224Z,18.09
2023-03-13T10:00:54.453Z,18.25
2023-03-13T10:03:25.953Z,18.28
2023-03-13T10:05:56.841Z,19.72
2023-03-13T10:08:26.344Z,20.49
2023-03-13T10:11:04.571Z,22.05
2023-03-13T10:13:42.224Z,21.53
2023-03-13T10:16:19.367Z,22.00
2023-03-13T10:18:52.628Z,20.87
2023-03-13T10:21:21.996Z,21.74
2023-03-13T10:24:00.971Z,20.73
2023-03-13T10:26:30.551Z,20.80
2023-03-13T10:29:16.856Z,20.80
2023-03-13T10:31:50.775Z,20.60
2023-03-13T10:34:17.502Z,20.91
2023-03-13T10:36:46.707Z,20.37
2023-03-13T10:39:24.985Z,19.68
2023-03-13T10:41:58.686Z,20.01
2023-03-13T10:44:32.207Z,20.37
2023-03-13T10:47:02.448Z,21.53
2023-03-13T10:49:30.945Z,22.97
2023-03-13T10:52:01.073Z,22.03
2023-03-13T10:54:37.433Z,22.82
2023-03-13T10:57:19.115Z,22.65
2023-03-13T10:59:52.019Z,22.41
2023-03-13T11:02:38.494Z,21.78
2023-03-13T11:05:26.042Z,22.82
2023-03-13T11:07:53.545Z,22.48
2023-03-13T11:10:29.905Z,23.78
2023-03-13T11:12:58.800Z,25.04
2023-03-13T11:15:32.627Z,25.12
2023-03-13T11:18:13.098Z,23.96
2023-03-13T11:20:43.237Z,23.55
2023-03-13T11:23:23.309Z,24.20
2023-03-13T11:26:05.248Z,24.02
2023-03-13T11:28:40.689Z,24.76
2023-03-13T11:31:46.576Z,24.60
2023-03-13T11:34:26.885Z,24.74
2023-03-13T11:37:04.307Z,23.76
2023-03-13T11:39:41.381Z,23.74
2023-03-13T11:42:14.071Z,22.44
2023-03-13T11:44:55.984Z,22.99
2023-03-13T11:47:32.473Z,22.60
2023-03-13T11:50:44.904Z,22.06
2023-03-13T11:53:35.749Z,21.88
2023-03-13T11:56:35.122Z,22.42
2023-03-13T11:59:23.476Z,22.17
2023-03-13T12:01:54.707Z,22.53
2023-03-13T12:04:44.616Z,22.30
2023-03-13T12:07:32.272Z,22.22
2023-03-13T12:10:03.783Z,22.30
2023-03-13T12:12:39.506Z,22.08
2023-03-13T12:15:19.388Z,21.68
2023-03-13T12:17:56.436Z,21.58
2023-03-13T12:20:34.576Z,22.28
2023-03-13T12:23:28.519Z,22.53
2023-03-13T12:25:58.269Z,22.90
2023-03-13T12:28:34.042Z,22.69
2023-03-13T12:31:13.019Z,22.67
2023-03-13T12:33:44.758Z,22.55
2023-03-13T12:36:26.229Z,22.46
2023-03-13T12:39:07.070Z,22.73
2023-03-13T12:41:48.062Z,23.28
2023-03-13T12:44:19.996Z,23.14
2023-03-13T12:46:50.846Z,22.50
2023-03-13T12:49:46.353Z,22.45
2023-03-13T12:52:22.421Z,22.69
2023-03-13T12:55:23.716Z,22.81
2023-03-13T12:58:11.731Z,23.17
2023-03-13T13:00:42.422Z,23.38
2023-03-13T13:03:38.834Z,22.85
2023-03-13T13:06:15.727Z,22.33
2023-03-13T13:08:47.128Z,23.06
2023-03-13T13:11:39.213Z,22.97
2023-03-13T13:14:28.979Z,22.76
2023-03-13T13:17:11.029Z,22.58
2023-03-13T13:19:40.436Z,23.49
2023-03-13T13:22:38.240Z,23.13
2023-03-13T13:25:08.062Z,23.33
2023-03-13T13:27:34.656Z,23.15
2023-03-13T13:30:25.467Z,22.88
2023-03-13T13:32:54.107Z,23.21
2023-03-13T13:35:33.252Z,22.89
2023-03-13T13:38:28.267Z,23.83
2023-03-13T13:41:11.167Z,23.31
2023-03-13T13:43:46.087Z,23.80
2023-03-13T13:46:33.182Z,22.83
2023-03-13T13:49:20.265Z,22.84
2023-03-13T13:52:10.005Z,22.62
2023-03-13T13:54:42.898Z,22.35
2023-03-13T13:57:15.728Z,22.33
2023-03-13T13:59:44.748Z,22.33
2023-03-13T14:02:27.935Z,22.53
2023-03-13T14:05:02.481Z,22.60
2023-03-13T14:07:41.569Z,23.03
2023-03-13T14:10:30.464Z,22.43
2023-03-13T14:13:00.027Z,22.70
2023-03-13T14:15:29.101Z,22.86
2023-03-13T14:18:00.456Z,22.76
2023-03-13T14:20:31.658Z,23.23
2023-03-13T14:23:07.950Z,22.71
2023-03-13T14:25:49.214Z,23.03
2023-03-13T14:28:21.913Z,22.37
2023-03-13T14:30:50.817Z,22.57
2023-03-13T14:33:18.215Z,22.70
2023-03-13T14:35:45.850Z,23.03
2023-03-13T14:38:25.811Z,21.00
2023-03-13T14:40:55.511Z,20.49
2023-03-13T14:43:22.722Z,19.12
2023-03-13T14:45:50.000Z,18.97
2023-03-13T14:48:23.498Z,18.06
2023-03-13T14:50:59.678Z,17.38
2023-03-13T14:53:36.001Z,16.44
2023-03-13T14:56:19.095Z,16.62
2023-03-13T14:58:46.882Z,16.58
2023-03-13T15:01:27.056Z,16.35
2023-03-13T15:03:53.832Z,16.46
2023-03-13T15:06:23.383Z,16.45
2023-03-13T15:09:16.675Z,16.37
2023-03-13T15:11:54.940Z,16.08
2023-03-13T15:14:43.082Z,16.90
2023-03-13T15:17:14.024Z,16.90
2023-03-13T15:19:41.650Z,16.82
2023-03-13T15:22:16.758Z,16.98
2023-03-13T15:24:56.174Z,17.17
2023-03-13T15:27:31.414Z,17.32
2023-03-13T15:29:58.075Z,17.52
2023-03-13T15:32:37.037Z,17.43
2023-03-13T15:35:17.490Z,17.56
2023-03-13T15:37:44.307Z,17.59
2023-03-13T15:40:15.938Z,17.71
2023-03-13T15:42:42.680Z,17.53
2023-03-13T15:45:09.713Z,17.67
2023-03-13T15:47:36.373Z,17.86
2023-03-13T15:50:04.204Z,17.78
2023-03-13T15:52:31.572Z,17.97
2023-03-13T15:54:58.189Z,17.99
2023-03-13T15:57:27.030Z,18.33
2023-03-13T15:59:54.171Z,18.38
2023-03-13T16:02:23.681Z,18.50
2023-03-13T16:04:51.412Z,18.07
2023-03-13T16:07:24.335Z,18.11
2023-03-13T16:09:51.099Z,17.94
2023-03-13T16:12:17.756Z,18.21
2023-03-13T16:14:44.391Z,18.26
2023-03-13T16:17:17.239Z,18.16
2023-03-13T16:19:45.057Z,18.09
2023-03-13T16:22:12.471Z,18.21
2023-03-13T16:24:39.533Z,18.16
2023-03-13T16:27:17.953Z,17.93
2023-03-13T16:29:45.359Z,17.93
2023-03-13T16:32:14.600Z,17.76
2023-03-13T16:34:41.540Z,18.13
2023-03-13T16:37:17.150Z,18.11
2023-03-13T16:39:45.078Z,18.00
2023-03-13T16:42:12.390Z,18.38
2023-03-13T16:44:39.584Z,17.88
2023-03-13T16:47:28.831Z,18.18
2023-03-13T16:49:55.703Z,18.44
2023-03-13T16:52:22.570Z,18.40
2023-03-13T16:54:49.929Z,18.52
2023-03-13T16:57:19.589Z,18.01
2023-03-13T16:59:46.239Z,18.18
2023-03-13T17:02:18.306Z,18.28
2023-03-13T17:04:46.044Z,18.34
2023-03-13T17:07:29.157Z,17.85
2023-03-13T17:09:55.790Z,17.84
2023-03-13T17:12:22.527Z,18.12
2023-03-13T17:14:49.283Z,18.05
2023-03-13T17:17:19.485Z,18.02
2023-03-13T17:19:46.740Z,17.93
2023-03-13T17:22:15.644Z,18.32
2023-03-13T17:24:42.626Z,17.80
2023-03-13T17:27:17.386Z,18.19
2023-03-13T17:29:44.730Z,18.40
2023-03-13T17:32:13.153Z,18.49
2023-03-13T17:34:40.778Z,18.15
2023-03-13T17:37:26.649Z,18.05
2023-03-13T17:39:53.350Z,17.97
2023-03-13T17:42:20.214Z,17.78
2023-03-13T17:44:46.926Z,17.42
2023-03-13T17:47:16.234Z,17.51
2023-03-13T17:49:43.869Z,17.25
2023-03-13T17:52:13.923Z,17.15
2023-03-13T17:54:40.790Z,16.42
2023-03-13T17:57:18.622Z,16.31
2023-03-13T17:59:46.593Z,16.48
2023-03-13T18:02:15.324Z,16.39
2023-03-13T18:04:42.663Z,16.16
2023-03-13T18:07:23.425Z,15.40
2023-03-13T18:09:50.191Z,15.58
2023-03-13T18:12:17.051Z,15.78
2023-03-13T18:14:44.065Z,15.68
2023-03-13T18:17:15.838Z,15.40
2023-03-13T18:19:43.771Z,15.39
2023-03-13T18:22:16.202Z,15.71
2023-03-13T18:24:43.394Z,15.64
2023-03-13T18:27:15.594Z,15.45
2023-03-13T18:29:43.289Z,15.61
2023-03-13T18:32:12.660Z,15.59
2023-03-13T18:34:39.525Z,15.74
2023-03-13T18:37:17.612Z,15.63
2023-03-13T18:39:44.236Z,15.56
2023-03-13T18:42:11.083Z,15.78
2023-03-13T18:44:37.724Z,15.86
2023-03-13T18:47:15.511Z,15.53
2023-03-13T18:49:42.499Z,15.82
2023-03-13T18:52:11.504Z,15.53
2023-03-13T18:54:38.857Z,15.47
2023-03-13T18:57:16.610Z,15.20
2023-03-13T18:59:43.917Z,15.61
2023-03-13T19:02:14.592Z,15.43
2023-03-13T19:04:41.975Z,15.38
2023-03-13T19:07:19.500Z,15.41
2023-03-13T19:09:47.166Z,15.53
2023-03-13T19:12:15.606Z,15.60
2023-03-13T19:14:42.732Z,15.54
2023-03-13T19:17:26.825Z,15.69
2023-03-13T19:19:57.243Z,15.98
2023-03-13T19:22:25.073Z,16.06
2023-03-13T19:24:51.859Z,16.08
2023-03-13T19:27:18.513Z,15.99
2023-03-13T19:29:45.538Z,16.00
2023-03-13T19:32:14.506Z,15.75
2023-03-13T19:34:41.178Z,15.68
2023-03-13T19:37:18.993Z,15.70
2023-03-13T19:39:45.709Z,15.77
2023-03-13T19:42:12.382Z,15.73
2023-03-13T19:44:40.331Z,15.67
2023-03-13T19:47:07.477Z,15.62
2023-03-13T19:49:34.190Z,15.54
2023-03-13T19:52:01.211Z,15.31
2023-03-13T19:54:28.157Z,15.47
2023-03-13T19:56:54.909Z,15.39
2023-03-13T19:59:23.842Z,15.22
2023-03-13T20:01:50.654Z,15.17
2023-03-13T20:04:17.359Z,15.02
2023-03-13T20:06:44.535Z,15.22
2023-03-13T20:09:15.017Z,15.04
2023-03-13T20:11:42.210Z,14.84
2023-03-13T20:14:09.696Z,14.59
2023-03-13T20:16:37.290Z,14.80
2023-03-13T20:19:04.705Z,14.89
2023-03-13T20:21:36.632Z,14.95
2023-03-13T20:24:21.343Z,14.93
2023-03-13T20:26:48.024Z,14.81
2023-03-13T20:29:14.755Z,14.83
2023-03-13T20:31:41.351Z,14.46
2023-03-13T20:34:08.158Z,14.25
2023-03-13T20:36:34.879Z,14.71
2023-03-13T20:39:01.569Z,14.73
2023-03-13T20:41:30.998Z,14.81
2023-03-13T20:43:57.785Z,14.51
2023-03-13T20:46:24.561Z,14.61
2023-03-13T20:48:51.163Z,14.64
2023-03-13T20:51:17.845Z,14.73
2023-03-13T20:53:44.727Z,14.80
2023-03-13T20:56:12.066Z,14.91
2023-03-13T20:58:39.222Z,14.99
2023-03-13T21:01:07.251Z,14.68
2023-03-13T21:03:35.907Z,14.75
2023-03-13T21:06:23.041Z,14.45
2023-03-13T21:08:49.744Z,14.73
2023-03-13T21:11:21.860Z,14.60
2023-03-13T21:13:49.955Z,14.62
2023-03-13T21:16:18.774Z,14.75
2023-03-13T21:18:46.344Z,14.84
2023-03-13T21:21:17.452Z,14.33
2023-03-13T21:23:45.506Z,14.68
2023-03-13T21:26:13.457Z,14.77
2023-03-13T21:28:40.828Z,14.44
2023-03-13T21:31:16.121Z,14.81
2023-03-13T21:33:45.086Z,14.50
2023-03-13T21:36:13.944Z,14.45
2023-03-13T21:38:40.965Z,14.42
2023-03-13T21:41:13.308Z,14.44
2023-03-13T21:43:43.963Z,14.46
2023-03-13T21:46:12.064Z,14.45
2023-03-13T21:48:40.119Z,14.42
2023-03-13T21:51:07.804Z,14.00
2023-03-13T21:53:34.893Z,14.42
2023-03-13T21:56:02.257Z,14.25
2023-03-13T21:58:29.139Z,14.16
2023-03-13T22:00:57.390Z,14.12
2023-03-13T22:03:26.579Z,14.03
2023-03-13T22:05:53.371Z,14.11
2023-03-13T22:08:20.267Z,14.25
2023-03-13T22:10:49.086Z,13.93
2023-03-13T22:13:15.975Z,14.23
2023-03-13T22:15:46.106Z,14.05
2023-03-13T22:18:14.333Z,13.93
2023-03-13T22:20:41.729Z,14.30
2023-03-13T22:23:11.848Z,14.43
2023-03-13T22:25:40.430Z,13.99
2023-03-13T22:28:07.685Z,13.99
2023-03-13T22:30:35.169Z,14.14
2023-03-13T22:33:03.864Z,14.15
2023-03-13T22:35:30.788Z,14.01
2023-03-13T22:37:57.860Z,14.10
2023-03-13T22:40:24.916Z,14.20
2023-03-13T22:42:51.804Z,14.28
2023-03-13T22:45:19.933Z,14.11
2023-03-13T22:47:46.828Z,14.16
2023-03-13T22:50:14.368Z,13.98
2023-03-13T22:52:41.827Z,14.04
2023-03-13T22:55:09.235Z,14.16
2023-03-13T22:57:36.228Z,14.22
2023-03-13T23:00:05.150Z,14.20
2023-03-13T23:02:31.987Z,14.30
2023-03-13T23:05:01.117Z,14.41
2023-03-13T23:07:29.437Z,14.15
2023-03-13T23:09:57.357Z,14.20
2023-03-13T23:12:25.202Z,14.37
2023-03-13T23:14:52.514Z,14.21
2023-03-13T23:17:19.195Z,14.28
2023-03-13T23:19:45.968Z,14.14
2023-03-13T23:22:17.732Z,14.43
2023-03-13T23:24:44.711Z,14.42
2023-03-13T23:27:11.383Z,14.43
2023-03-13T23:29:38.291Z,14.27
2023-03-13T23:32:05.151Z,14.16
2023-03-13T23:34:32.599Z,14.21
2023-03-13T23:36:59.236Z,14.06
2023-03-13T23:39:25.851Z,14.45
2023-03-13T23:41:52.521Z,14.59
2023-03-13T23:44:19.256Z,14.56
2023-03-13T23:46:45.921Z,13.83
2023-03-13T23:49:15.421Z,14.21
2023-03-13T23:51:42.148Z,14.19
2023-03-13T23:54:08.849Z,13.84
2023-03-13T23:56:35.467Z,14.10
2023-03-13T23:59:02.398Z,14.19
